sensor_id;sensor_type;location;lat;lon;timestamp;P1;durP1;ratioP1;P2;durP2;ratioP2
16320;SDS011;8269;50.990;4.494;2023-05-10T00:01:07;18.33;;;12.85;;
16320;SDS011;8269;50.990;4.494;2023-05-10T00:03:33;16.83;;;11.70;;
16320;SDS011;8269;50.990;4.494;2023-05-10T00:05:58;21.23;;;12.13;;
16320;SDS011;8269;50.990;4.494;2023-05-10T00:08:24;19.15;;;12.18;;
16320;SDS011;8269;50.990;4.494;2023-05-10T00:10:50;19.03;;;11.70;;
16320;SDS011;8269;50.990;4.494;2023-05-10T00:13:17;19.13;;;10.83;;
16320;SDS011;8269;50.990;4.494;2023-05-10T00:15:42;22.15;;;11.55;;
16320;SDS011;8269;50.990;4.494;2023-05-10T00:18:08;18.47;;;11.00;;
16320;SDS011;8269;50.990;4.494;2023-05-10T00:20:33;18.10;;;10.77;;
16320;SDS011;8269;50.990;4.494;2023-05-10T00:22:59;17.20;;;10.80;;
16320;SDS011;8269;50.990;4.494;2023-05-10T00:25:25;16.37;;;11.40;;
16320;SDS011;8269;50.990;4.494;2023-05-10T00:27:51;13.77;;;9.60;;
16320;SDS011;8269;50.990;4.494;2023-05-10T00:30:16;16.05;;;10.23;;
16320;SDS011;8269;50.990;4.494;2023-05-10T00:32:43;16.97;;;10.17;;
16320;SDS011;8269;50.990;4.494;2023-05-10T00:35:08;17.43;;;9.57;;
16320;SDS011;8269;50.990;4.494;2023-05-10T00:37:34;17.03;;;10.00;;
16320;SDS011;8269;50.990;4.494;2023-05-10T00:40:00;17.83;;;10.30;;
16320;SDS011;8269;50.990;4.494;2023-05-10T00:42:26;18.17;;;10.43;;
16320;SDS011;8269;50.990;4.494;2023-05-10T00:44:51;17.53;;;10.70;;
16320;SDS011;8269;50.990;4.494;2023-05-10T00:47:17;19.87;;;10.73;;
16320;SDS011;8269;50.990;4.494;2023-05-10T00:49:43;19.03;;;11.40;;
16320;SDS011;8269;50.990;4.494;2023-05-10T00:52:09;20.27;;;12.27;;
16320;SDS011;8269;50.990;4.494;2023-05-10T00:54:35;21.43;;;13.23;;
16320;SDS011;8269;50.990;4.494;2023-05-10T00:57:01;23.67;;;12.27;;
16320;SDS011;8269;50.990;4.494;2023-05-10T00:59:28;20.20;;;12.43;;
16320;SDS011;8269;50.990;4.494;2023-05-10T01:01:54;21.87;;;13.13;;
16320;SDS011;8269;50.990;4.494;2023-05-10T01:04:20;18.77;;;13.30;;
16320;SDS011;8269;50.990;4.494;2023-05-10T01:06:50;19.43;;;13.37;;
16320;SDS011;8269;50.990;4.494;2023-05-10T01:09:17;21.67;;;13.20;;
16320;SDS011;8269;50.990;4.494;2023-05-10T01:11:44;17.80;;;12.70;;
16320;SDS011;8269;50.990;4.494;2023-05-10T01:14:10;20.02;;;13.52;;
16320;SDS011;8269;50.990;4.494;2023-05-10T01:16:37;20.20;;;13.77;;
16320;SDS011;8269;50.990;4.494;2023-05-10T01:19:10;20.33;;;12.88;;
16320;SDS011;8269;50.990;4.494;2023-05-10T01:27:02;20.85;;;13.80;;
16320;SDS011;8269;50.990;4.494;2023-05-10T01:32:36;22.90;;;14.20;;
16320;SDS011;8269;50.990;4.494;2023-05-10T01:35:20;24.37;;;14.33;;
16320;SDS011;8269;50.990;4.494;2023-05-10T01:40:39;23.50;;;14.63;;
16320;SDS011;8269;50.990;4.494;2023-05-10T01:43:30;25.88;;;14.40;;
16320;SDS011;8269;50.990;4.494;2023-05-10T01:46:06;23.10;;;14.73;;
16320;SDS011;8269;50.990;4.494;2023-05-10T01:48:40;22.80;;;14.87;;
16320;SDS011;8269;50.990;4.494;2023-05-10T01:51:12;22.97;;;14.17;;
16320;SDS011;8269;50.990;4.494;2023-05-10T01:53:41;26.58;;;15.32;;
16320;SDS011;8269;50.990;4.494;2023-05-10T01:56:09;24.52;;;15.63;;
16320;SDS011;8269;50.990;4.494;2023-05-10T01:58:37;21.10;;;15.07;;
16320;SDS011;8269;50.990;4.494;2023-05-10T02:01:07;25.07;;;14.60;;
16320;SDS011;8269;50.990;4.494;2023-05-10T02:03:36;24.88;;;15.45;;
16320;SDS011;8269;50.990;4.494;2023-05-10T02:06:03;23.77;;;15.23;;
16320;SDS011;8269;50.990;4.494;2023-05-10T02:08:30;24.77;;;15.60;;
16320;SDS011;8269;50.990;4.494;2023-05-10T02:10:58;23.33;;;15.67;;
16320;SDS011;8269;50.990;4.494;2023-05-10T02:13:24;25.70;;;15.83;;
16320;SDS011;8269;50.990;4.494;2023-05-10T02:15:52;24.83;;;15.07;;
16320;SDS011;8269;50.990;4.494;2023-05-10T02:18:19;25.07;;;15.80;;
16320;SDS011;8269;50.990;4.494;2023-05-10T02:20:47;26.17;;;16.23;;
16320;SDS011;8269;50.990;4.494;2023-05-10T02:23:13;23.37;;;15.97;;
16320;SDS011;8269;50.990;4.494;2023-05-10T02:25:42;25.13;;;15.67;;
16320;SDS011;8269;50.990;4.494;2023-05-10T02:28:08;30.63;;;17.03;;
16320;SDS011;8269;50.990;4.494;2023-05-10T02:30:36;24.10;;;15.17;;
16320;SDS011;8269;50.990;4.494;2023-05-10T02:33:04;25.70;;;16.23;;
16320;SDS011;8269;50.990;4.494;2023-05-10T02:35:30;24.13;;;15.33;;
16320;SDS011;8269;50.990;4.494;2023-05-10T02:37:58;21.47;;;15.10;;
16320;SDS011;8269;50.990;4.494;2023-05-10T02:40:25;24.17;;;16.17;;
16320;SDS011;8269;50.990;4.494;2023-05-10T02:42:52;25.53;;;16.07;;
16320;SDS011;8269;50.990;4.494;2023-05-10T02:45:21;27.93;;;15.90;;
16320;SDS011;8269;50.990;4.494;2023-05-10T02:47:51;25.53;;;16.03;;
16320;SDS011;8269;50.990;4.494;2023-05-10T02:50:17;26.47;;;15.57;;
16320;SDS011;8269;50.990;4.494;2023-05-10T02:52:44;24.00;;;15.53;;
16320;SDS011;8269;50.990;4.494;2023-05-10T02:55:12;25.93;;;16.13;;
16320;SDS011;8269;50.990;4.494;2023-05-10T02:57:41;25.87;;;16.73;;
16320;SDS011;8269;50.990;4.494;2023-05-10T03:00:13;25.57;;;16.37;;
16320;SDS011;8269;50.990;4.494;2023-05-10T03:02:39;25.65;;;16.48;;
16320;SDS011;8269;50.990;4.494;2023-05-10T03:05:05;24.70;;;17.03;;
16320;SDS011;8269;50.990;4.494;2023-05-10T03:07:32;24.33;;;15.40;;
16320;SDS011;8269;50.990;4.494;2023-05-10T03:09:58;28.43;;;17.17;;
16320;SDS011;8269;50.990;4.494;2023-05-10T03:12:38;27.47;;;17.60;;
16320;SDS011;8269;50.990;4.494;2023-05-10T03:18:02;27.70;;;18.23;;
16320;SDS011;8269;50.990;4.494;2023-05-10T03:20:42;28.67;;;17.73;;
16320;SDS011;8269;50.990;4.494;2023-05-10T03:24:12;31.67;;;18.73;;
16320;SDS011;8269;50.990;4.494;2023-05-10T03:26:09;33.40;;;19.00;;
16320;SDS011;8269;50.990;4.494;2023-05-10T03:28:40;27.23;;;18.20;;
16320;SDS011;8269;50.990;4.494;2023-05-10T03:31:06;33.30;;;19.33;;
16320;SDS011;8269;50.990;4.494;2023-05-10T03:33:33;30.47;;;19.63;;
16320;SDS011;8269;50.990;4.494;2023-05-10T03:35:59;32.83;;;20.30;;
16320;SDS011;8269;50.990;4.494;2023-05-10T03:38:25;30.43;;;18.13;;
16320;SDS011;8269;50.990;4.494;2023-05-10T03:40:51;31.37;;;20.40;;
16320;SDS011;8269;50.990;4.494;2023-05-10T03:43:16;31.50;;;17.70;;
16320;SDS011;8269;50.990;4.494;2023-05-10T03:45:42;36.37;;;20.73;;
16320;SDS011;8269;50.990;4.494;2023-05-10T03:48:07;36.17;;;21.77;;
16320;SDS011;8269;50.990;4.494;2023-05-10T03:50:33;35.55;;;20.73;;
16320;SDS011;8269;50.990;4.494;2023-05-10T03:52:59;35.83;;;21.57;;
16320;SDS011;8269;50.990;4.494;2023-05-10T03:55:24;34.53;;;21.90;;
16320;SDS011;8269;50.990;4.494;2023-05-10T03:57:50;35.33;;;22.27;;
16320;SDS011;8269;50.990;4.494;2023-05-10T04:00:16;35.83;;;21.80;;
16320;SDS011;8269;50.990;4.494;2023-05-10T04:02:42;34.00;;;21.23;;
16320;SDS011;8269;50.990;4.494;2023-05-10T04:05:07;36.30;;;21.20;;
16320;SDS011;8269;50.990;4.494;2023-05-10T04:07:33;34.73;;;21.27;;
16320;SDS011;8269;50.990;4.494;2023-05-10T04:09:59;33.97;;;21.90;;
16320;SDS011;8269;50.990;4.494;2023-05-10T04:12:25;31.45;;;20.70;;
16320;SDS011;8269;50.990;4.494;2023-05-10T04:14:50;33.08;;;21.13;;
16320;SDS011;8269;50.990;4.494;2023-05-10T04:17:16;35.17;;;22.10;;
16320;SDS011;8269;50.990;4.494;2023-05-10T04:19:42;35.90;;;21.83;;
16320;SDS011;8269;50.990;4.494;2023-05-10T04:22:07;38.03;;;21.77;;
16320;SDS011;8269;50.990;4.494;2023-05-10T04:24:33;37.20;;;22.60;;
16320;SDS011;8269;50.990;4.494;2023-05-10T04:26:59;38.30;;;22.97;;
16320;SDS011;8269;50.990;4.494;2023-05-10T04:29:24;41.73;;;23.17;;
16320;SDS011;8269;50.990;4.494;2023-05-10T04:31:50;42.20;;;25.93;;
16320;SDS011;8269;50.990;4.494;2023-05-10T04:34:16;40.90;;;23.93;;
16320;SDS011;8269;50.990;4.494;2023-05-10T04:36:42;39.67;;;24.17;;
16320;SDS011;8269;50.990;4.494;2023-05-10T04:39:08;40.13;;;24.00;;
16320;SDS011;8269;50.990;4.494;2023-05-10T04:41:34;41.27;;;23.73;;
16320;SDS011;8269;50.990;4.494;2023-05-10T04:44:00;41.70;;;24.23;;
16320;SDS011;8269;50.990;4.494;2023-05-10T04:46:25;40.90;;;24.10;;
16320;SDS011;8269;50.990;4.494;2023-05-10T04:48:51;40.00;;;22.70;;
16320;SDS011;8269;50.990;4.494;2023-05-10T04:51:17;40.17;;;23.53;;
16320;SDS011;8269;50.990;4.494;2023-05-10T04:53:42;39.30;;;23.47;;
16320;SDS011;8269;50.990;4.494;2023-05-10T04:56:08;39.97;;;22.83;;
16320;SDS011;8269;50.990;4.494;2023-05-10T04:58:34;39.73;;;22.90;;
16320;SDS011;8269;50.990;4.494;2023-05-10T05:01:05;39.07;;;22.90;;
16320;SDS011;8269;50.990;4.494;2023-05-10T05:03:32;36.35;;;22.88;;
16320;SDS011;8269;50.990;4.494;2023-05-10T05:05:58;38.67;;;22.80;;
16320;SDS011;8269;50.990;4.494;2023-05-10T05:08:24;36.50;;;22.80;;
16320;SDS011;8269;50.990;4.494;2023-05-10T05:10:50;37.80;;;22.97;;
16320;SDS011;8269;50.990;4.494;2023-05-10T05:13:15;40.30;;;22.97;;
16320;SDS011;8269;50.990;4.494;2023-05-10T05:15:41;38.20;;;22.60;;
16320;SDS011;8269;50.990;4.494;2023-05-10T05:18:07;38.47;;;22.67;;
16320;SDS011;8269;50.990;4.494;2023-05-10T05:20:33;37.13;;;23.00;;
16320;SDS011;8269;50.990;4.494;2023-05-10T05:22:59;36.13;;;21.88;;
16320;SDS011;8269;50.990;4.494;2023-05-10T05:25:25;38.80;;;22.80;;
16320;SDS011;8269;50.990;4.494;2023-05-10T05:27:51;38.10;;;23.40;;
16320;SDS011;8269;50.990;4.494;2023-05-10T05:30:17;36.28;;;21.45;;
16320;SDS011;8269;50.990;4.494;2023-05-10T05:32:43;35.73;;;22.53;;
16320;SDS011;8269;50.990;4.494;2023-05-10T05:35:09;33.28;;;21.90;;
16320;SDS011;8269;50.990;4.494;2023-05-10T05:37:35;34.83;;;21.67;;
16320;SDS011;8269;50.990;4.494;2023-05-10T05:40:02;31.33;;;20.90;;
16320;SDS011;8269;50.990;4.494;2023-05-10T05:42:29;35.27;;;21.93;;
16320;SDS011;8269;50.990;4.494;2023-05-10T05:44:56;33.53;;;20.83;;
16320;SDS011;8269;50.990;4.494;2023-05-10T05:47:22;31.92;;;21.55;;
16320;SDS011;8269;50.990;4.494;2023-05-10T05:49:48;32.83;;;21.23;;
16320;SDS011;8269;50.990;4.494;2023-05-10T05:52:14;31.60;;;21.77;;
16320;SDS011;8269;50.990;4.494;2023-05-10T05:54:40;31.88;;;21.20;;
16320;SDS011;8269;50.990;4.494;2023-05-10T05:57:06;32.83;;;22.47;;
16320;SDS011;8269;50.990;4.494;2023-05-10T05:59:32;34.40;;;21.47;;
16320;SDS011;8269;50.990;4.494;2023-05-10T06:01:58;31.80;;;20.90;;
16320;SDS011;8269;50.990;4.494;2023-05-10T06:04:25;30.42;;;19.98;;
16320;SDS011;8269;50.990;4.494;2023-05-10T06:06:51;28.80;;;19.58;;
16320;SDS011;8269;50.990;4.494;2023-05-10T06:09:17;30.23;;;19.67;;
16320;SDS011;8269;50.990;4.494;2023-05-10T06:11:43;27.17;;;18.70;;
16320;SDS011;8269;50.990;4.494;2023-05-10T06:14:09;27.80;;;19.88;;
16320;SDS011;8269;50.990;4.494;2023-05-10T06:16:35;27.13;;;19.37;;
16320;SDS011;8269;50.990;4.494;2023-05-10T06:19:01;27.60;;;18.85;;
16320;SDS011;8269;50.990;4.494;2023-05-10T06:21:27;27.63;;;19.50;;
16320;SDS011;8269;50.990;4.494;2023-05-10T06:23:53;30.15;;;19.85;;
16320;SDS011;8269;50.990;4.494;2023-05-10T06:26:19;29.88;;;20.67;;
16320;SDS011;8269;50.990;4.494;2023-05-10T06:28:45;29.75;;;19.67;;
16320;SDS011;8269;50.990;4.494;2023-05-10T06:31:11;28.83;;;19.90;;
16320;SDS011;8269;50.990;4.494;2023-05-10T06:33:37;26.40;;;18.58;;
16320;SDS011;8269;50.990;4.494;2023-05-10T06:36:03;27.98;;;18.77;;
16320;SDS011;8269;50.990;4.494;2023-05-10T06:38:28;27.52;;;19.05;;
16320;SDS011;8269;50.990;4.494;2023-05-10T06:40:54;28.80;;;18.92;;
16320;SDS011;8269;50.990;4.494;2023-05-10T06:43:20;29.08;;;19.55;;
16320;SDS011;8269;50.990;4.494;2023-05-10T06:45:45;25.63;;;18.75;;
16320;SDS011;8269;50.990;4.494;2023-05-10T06:48:12;25.13;;;18.52;;
16320;SDS011;8269;50.990;4.494;2023-05-10T06:50:38;26.48;;;19.00;;
16320;SDS011;8269;50.990;4.494;2023-05-10T06:53:03;25.98;;;19.08;;
16320;SDS011;8269;50.990;4.494;2023-05-10T06:55:29;25.33;;;17.33;;
16320;SDS011;8269;50.990;4.494;2023-05-10T06:57:55;24.80;;;17.55;;
16320;SDS011;8269;50.990;4.494;2023-05-10T07:00:20;25.80;;;17.35;;
16320;SDS011;8269;50.990;4.494;2023-05-10T07:02:46;24.40;;;17.13;;
16320;SDS011;8269;50.990;4.494;2023-05-10T07:05:12;24.00;;;17.98;;
16320;SDS011;8269;50.990;4.494;2023-05-10T07:07:39;25.80;;;17.73;;
16320;SDS011;8269;50.990;4.494;2023-05-10T07:10:04;24.75;;;17.65;;
16320;SDS011;8269;50.990;4.494;2023-05-10T07:12:31;23.85;;;18.35;;
16320;SDS011;8269;50.990;4.494;2023-05-10T07:14:56;29.30;;;18.63;;
16320;SDS011;8269;50.990;4.494;2023-05-10T07:17:22;28.23;;;20.20;;
16320;SDS011;8269;50.990;4.494;2023-05-10T07:19:48;30.90;;;19.98;;
16320;SDS011;8269;50.990;4.494;2023-05-10T07:22:14;30.05;;;19.95;;
16320;SDS011;8269;50.990;4.494;2023-05-10T07:24:40;30.45;;;20.83;;
16320;SDS011;8269;50.990;4.494;2023-05-10T07:27:06;31.48;;;20.90;;
16320;SDS011;8269;50.990;4.494;2023-05-10T07:29:32;30.73;;;20.15;;
16320;SDS011;8269;50.990;4.494;2023-05-10T07:31:57;31.00;;;20.13;;
16320;SDS011;8269;50.990;4.494;2023-05-10T07:34:23;30.67;;;21.77;;
16320;SDS011;8269;50.990;4.494;2023-05-10T07:36:49;32.03;;;21.52;;
16320;SDS011;8269;50.990;4.494;2023-05-10T07:39:15;29.80;;;22.40;;
16320;SDS011;8269;50.990;4.494;2023-05-10T07:41:41;33.65;;;21.02;;
16320;SDS011;8269;50.990;4.494;2023-05-10T07:44:07;30.63;;;20.52;;
16320;SDS011;8269;50.990;4.494;2023-05-10T07:46:33;30.95;;;21.92;;
16320;SDS011;8269;50.990;4.494;2023-05-10T07:48:58;30.17;;;20.87;;
16320;SDS011;8269;50.990;4.494;2023-05-10T07:51:24;31.65;;;21.38;;
16320;SDS011;8269;50.990;4.494;2023-05-10T07:53:49;32.80;;;21.60;;
16320;SDS011;8269;50.990;4.494;2023-05-10T07:56:22;31.05;;;21.08;;
16320;SDS011;8269;50.990;4.494;2023-05-10T07:58:51;27.33;;;19.52;;
16320;SDS011;8269;50.990;4.494;2023-05-10T08:01:17;29.88;;;20.10;;
16320;SDS011;8269;50.990;4.494;2023-05-10T08:03:44;28.45;;;19.88;;
16320;SDS011;8269;50.990;4.494;2023-05-10T08:06:10;26.85;;;18.73;;
16320;SDS011;8269;50.990;4.494;2023-05-10T08:08:36;29.17;;;18.88;;
16320;SDS011;8269;50.990;4.494;2023-05-10T08:11:01;31.40;;;26.85;;
16320;SDS011;8269;50.990;4.494;2023-05-10T08:13:28;29.10;;;18.48;;
16320;SDS011;8269;50.990;4.494;2023-05-10T08:15:53;26.48;;;17.08;;
16320;SDS011;8269;50.990;4.494;2023-05-10T08:18:19;26.40;;;17.75;;
16320;SDS011;8269;50.990;4.494;2023-05-10T08:20:45;24.73;;;17.23;;
16320;SDS011;8269;50.990;4.494;2023-05-10T08:23:14;26.08;;;17.77;;
16320;SDS011;8269;50.990;4.494;2023-05-10T08:25:39;24.55;;;17.23;;
16320;SDS011;8269;50.990;4.494;2023-05-10T08:28:05;24.27;;;16.92;;
16320;SDS011;8269;50.990;4.494;2023-05-10T08:30:31;27.55;;;16.25;;
16320;SDS011;8269;50.990;4.494;2023-05-10T08:32:56;23.65;;;16.85;;
16320;SDS011;8269;50.990;4.494;2023-05-10T08:35:22;27.25;;;16.90;;
16320;SDS011;8269;50.990;4.494;2023-05-10T08:37:48;25.55;;;15.98;;
16320;SDS011;8269;50.990;4.494;2023-05-10T08:40:13;25.63;;;15.55;;
16320;SDS011;8269;50.990;4.494;2023-05-10T08:42:41;23.63;;;14.77;;
16320;SDS011;8269;50.990;4.494;2023-05-10T08:45:10;20.20;;;13.88;;
16320;SDS011;8269;50.990;4.494;2023-05-10T08:47:37;21.60;;;13.18;;
16320;SDS011;8269;50.990;4.494;2023-05-10T08:50:04;22.27;;;13.68;;
16320;SDS011;8269;50.990;4.494;2023-05-10T08:52:30;21.27;;;12.50;;
16320;SDS011;8269;50.990;4.494;2023-05-10T08:55:00;20.30;;;12.68;;
16320;SDS011;8269;50.990;4.494;2023-05-10T08:57:26;20.20;;;11.45;;
16320;SDS011;8269;50.990;4.494;2023-05-10T08:59:51;17.08;;;11.77;;
16320;SDS011;8269;50.990;4.494;2023-05-10T09:02:18;23.00;;;12.40;;
16320;SDS011;8269;50.990;4.494;2023-05-10T09:04:45;20.15;;;12.55;;
16320;SDS011;8269;50.990;4.494;2023-05-10T09:07:11;16.80;;;10.90;;
16320;SDS011;8269;50.990;4.494;2023-05-10T09:09:37;19.02;;;11.35;;
16320;SDS011;8269;50.990;4.494;2023-05-10T09:12:03;17.98;;;11.45;;
16320;SDS011;8269;50.990;4.494;2023-05-10T09:14:29;18.95;;;11.82;;
16320;SDS011;8269;50.990;4.494;2023-05-10T09:17:00;19.02;;;11.38;;
16320;SDS011;8269;50.990;4.494;2023-05-10T09:19:27;18.17;;;11.43;;
16320;SDS011;8269;50.990;4.494;2023-05-10T09:21:53;20.97;;;12.20;;
16320;SDS011;8269;50.990;4.494;2023-05-10T09:24:18;16.38;;;10.60;;
16320;SDS011;8269;50.990;4.494;2023-05-10T09:26:47;16.77;;;11.30;;
16320;SDS011;8269;50.990;4.494;2023-05-10T09:29:14;18.17;;;10.90;;
16320;SDS011;8269;50.990;4.494;2023-05-10T09:31:49;19.37;;;11.90;;
16320;SDS011;8269;50.990;4.494;2023-05-10T09:34:18;19.25;;;9.75;;
16320;SDS011;8269;50.990;4.494;2023-05-10T09:36:51;18.15;;;10.85;;
16320;SDS011;8269;50.990;4.494;2023-05-10T09:39:18;15.90;;;10.50;;
16320;SDS011;8269;50.990;4.494;2023-05-10T09:41:44;15.20;;;10.23;;
16320;SDS011;8269;50.990;4.494;2023-05-10T09:44:09;14.57;;;9.40;;
16320;SDS011;8269;50.990;4.494;2023-05-10T09:46:35;14.90;;;9.73;;
16320;SDS011;8269;50.990;4.494;2023-05-10T09:49:01;15.10;;;9.70;;
16320;SDS011;8269;50.990;4.494;2023-05-10T09:51:27;14.32;;;9.18;;
16320;SDS011;8269;50.990;4.494;2023-05-10T09:54:08;13.70;;;9.82;;
16320;SDS011;8269;50.990;4.494;2023-05-10T09:56:39;12.50;;;8.60;;
16320;SDS011;8269;50.990;4.494;2023-05-10T09:59:06;12.95;;;8.90;;
16320;SDS011;8269;50.990;4.494;2023-05-10T10:01:35;13.75;;;9.77;;
16320;SDS011;8269;50.990;4.494;2023-05-10T10:04:05;12.70;;;9.15;;
16320;SDS011;8269;50.990;4.494;2023-05-10T10:06:36;13.27;;;9.30;;
16320;SDS011;8269;50.990;4.494;2023-05-10T10:09:02;14.75;;;9.68;;
16320;SDS011;8269;50.990;4.494;2023-05-10T10:11:28;15.00;;;10.45;;
16320;SDS011;8269;50.990;4.494;2023-05-10T10:13:54;15.07;;;9.80;;
16320;SDS011;8269;50.990;4.494;2023-05-10T10:16:20;14.27;;;9.55;;
16320;SDS011;8269;50.990;4.494;2023-05-10T10:18:46;14.73;;;9.68;;
16320;SDS011;8269;50.990;4.494;2023-05-10T10:21:13;13.70;;;9.95;;
16320;SDS011;8269;50.990;4.494;2023-05-10T10:23:40;13.20;;;9.33;;
16320;SDS011;8269;50.990;4.494;2023-05-10T10:26:05;13.98;;;9.90;;
16320;SDS011;8269;50.990;4.494;2023-05-10T10:28:51;14.87;;;9.57;;
16320;SDS011;8269;50.990;4.494;2023-05-10T10:31:47;16.17;;;9.50;;
16320;SDS011;8269;50.990;4.494;2023-05-10T10:34:26;13.18;;;9.15;;
16320;SDS011;8269;50.990;4.494;2023-05-10T10:36:53;15.05;;;9.75;;
16320;SDS011;8269;50.990;4.494;2023-05-10T10:39:21;14.15;;;8.93;;
16320;SDS011;8269;50.990;4.494;2023-05-10T10:47:05;13.02;;;8.90;;
16320;SDS011;8269;50.990;4.494;2023-05-10T10:49:43;12.02;;;8.05;;
16320;SDS011;8269;50.990;4.494;2023-05-10T10:52:26;13.18;;;8.20;;
16320;SDS011;8269;50.990;4.494;2023-05-10T10:57:51;12.00;;;7.38;;
16320;SDS011;8269;50.990;4.494;2023-05-10T11:00:37;11.18;;;8.50;;
16320;SDS011;8269;50.990;4.494;2023-05-10T11:03:09;11.82;;;8.20;;
16320;SDS011;8269;50.990;4.494;2023-05-10T11:05:42;11.65;;;7.38;;
16320;SDS011;8269;50.990;4.494;2023-05-10T11:13:29;10.77;;;7.20;;
16320;SDS011;8269;50.990;4.494;2023-05-10T11:15:56;11.68;;;7.15;;
16320;SDS011;8269;50.990;4.494;2023-05-10T11:18:31;9.82;;;7.30;;
16320;SDS011;8269;50.990;4.494;2023-05-10T11:21:00;9.55;;;6.72;;
16320;SDS011;8269;50.990;4.494;2023-05-10T11:26:11;11.90;;;7.63;;
16320;SDS011;8269;50.990;4.494;2023-05-10T11:28:41;9.77;;;7.68;;
16320;SDS011;8269;50.990;4.494;2023-05-10T11:31:07;12.07;;;7.90;;
16320;SDS011;8269;50.990;4.494;2023-05-10T11:33:46;9.82;;;7.82;;
16320;SDS011;8269;50.990;4.494;2023-05-10T11:36:14;10.95;;;7.57;;
16320;SDS011;8269;50.990;4.494;2023-05-10T11:38:41;10.38;;;7.22;;
16320;SDS011;8269;50.990;4.494;2023-05-10T11:41:11;11.25;;;7.72;;
16320;SDS011;8269;50.990;4.494;2023-05-10T11:43:40;9.75;;;6.82;;
16320;SDS011;8269;50.990;4.494;2023-05-10T11:46:06;10.88;;;7.18;;
16320;SDS011;8269;50.990;4.494;2023-05-10T11:48:34;11.27;;;7.15;;
16320;SDS011;8269;50.990;4.494;2023-05-10T11:51:00;8.55;;;6.68;;
16320;SDS011;8269;50.990;4.494;2023-05-10T11:53:27;9.30;;;7.10;;
16320;SDS011;8269;50.990;4.494;2023-05-10T11:55:54;10.40;;;7.20;;
16320;SDS011;8269;50.990;4.494;2023-05-10T11:58:20;9.98;;;6.22;;
16320;SDS011;8269;50.990;4.494;2023-05-10T12:00:48;10.27;;;7.15;;
16320;SDS011;8269;50.990;4.494;2023-05-10T12:03:14;9.45;;;6.75;;
16320;SDS011;8269;50.990;4.494;2023-05-10T12:05:40;9.60;;;7.15;;
16320;SDS011;8269;50.990;4.494;2023-05-10T12:08:19;11.63;;;7.45;;
16320;SDS011;8269;50.990;4.494;2023-05-10T12:10:47;11.00;;;7.00;;
16320;SDS011;8269;50.990;4.494;2023-05-10T12:13:13;10.90;;;6.82;;
16320;SDS011;8269;50.990;4.494;2023-05-10T12:15:40;12.52;;;6.72;;
16320;SDS011;8269;50.990;4.494;2023-05-10T12:18:12;9.77;;;6.07;;
16320;SDS011;8269;50.990;4.494;2023-05-10T12:20:39;10.32;;;6.68;;
16320;SDS011;8269;50.990;4.494;2023-05-10T12:23:09;10.52;;;6.43;;
16320;SDS011;8269;50.990;4.494;2023-05-10T12:25:36;11.70;;;6.90;;
16320;SDS011;8269;50.990;4.494;2023-05-10T12:28:04;9.57;;;6.40;;
16320;SDS011;8269;50.990;4.494;2023-05-10T12:30:31;12.25;;;6.07;;
16320;SDS011;8269;50.990;4.494;2023-05-10T12:33:11;9.77;;;6.45;;
16320;SDS011;8269;50.990;4.494;2023-05-10T12:35:43;8.90;;;6.25;;
16320;SDS011;8269;50.990;4.494;2023-05-10T12:38:26;9.25;;;6.28;;
16320;SDS011;8269;50.990;4.494;2023-05-10T12:40:56;9.93;;;6.75;;
16320;SDS011;8269;50.990;4.494;2023-05-10T12:43:25;9.38;;;7.18;;
16320;SDS011;8269;50.990;4.494;2023-05-10T12:45:51;12.10;;;8.02;;
16320;SDS011;8269;50.990;4.494;2023-05-10T12:48:17;13.68;;;8.82;;
16320;SDS011;8269;50.990;4.494;2023-05-10T12:50:43;10.95;;;7.53;;
16320;SDS011;8269;50.990;4.494;2023-05-10T12:53:09;14.07;;;8.93;;
16320;SDS011;8269;50.990;4.494;2023-05-10T12:55:34;14.00;;;8.20;;
16320;SDS011;8269;50.990;4.494;2023-05-10T12:58:00;12.75;;;7.55;;
16320;SDS011;8269;50.990;4.494;2023-05-10T13:00:26;11.10;;;7.38;;
16320;SDS011;8269;50.990;4.494;2023-05-10T13:02:51;10.45;;;7.05;;
16320;SDS011;8269;50.990;4.494;2023-05-10T13:05:18;10.82;;;7.40;;
16320;SDS011;8269;50.990;4.494;2023-05-10T13:07:43;9.98;;;6.97;;
16320;SDS011;8269;50.990;4.494;2023-05-10T13:10:09;12.45;;;7.90;;
16320;SDS011;8269;50.990;4.494;2023-05-10T13:12:36;13.40;;;8.82;;
16320;SDS011;8269;50.990;4.494;2023-05-10T13:15:02;11.30;;;7.90;;
16320;SDS011;8269;50.990;4.494;2023-05-10T13:17:28;11.00;;;8.15;;
16320;SDS011;8269;50.990;4.494;2023-05-10T13:19:54;10.30;;;7.70;;
16320;SDS011;8269;50.990;4.494;2023-05-10T13:22:20;11.32;;;7.50;;
16320;SDS011;8269;50.990;4.494;2023-05-10T13:24:45;11.85;;;7.97;;
16320;SDS011;8269;50.990;4.494;2023-05-10T13:27:11;11.10;;;7.78;;
16320;SDS011;8269;50.990;4.494;2023-05-10T13:29:37;13.23;;;8.77;;
16320;SDS011;8269;50.990;4.494;2023-05-10T13:32:02;9.68;;;7.80;;
16320;SDS011;8269;50.990;4.494;2023-05-10T13:34:28;15.07;;;8.02;;
16320;SDS011;8269;50.990;4.494;2023-05-10T13:36:54;11.75;;;7.72;;
16320;SDS011;8269;50.990;4.494;2023-05-10T13:39:21;9.80;;;7.75;;
16320;SDS011;8269;50.990;4.494;2023-05-10T13:41:47;10.90;;;7.63;;
16320;SDS011;8269;50.990;4.494;2023-05-10T13:44:13;10.63;;;8.27;;
16320;SDS011;8269;50.990;4.494;2023-05-10T13:46:40;10.15;;;8.05;;
16320;SDS011;8269;50.990;4.494;2023-05-10T13:49:07;11.95;;;9.85;;
16320;SDS011;8269;50.990;4.494;2023-05-10T13:51:34;10.48;;;8.43;;
16320;SDS011;8269;50.990;4.494;2023-05-10T13:54:00;11.88;;;8.30;;
16320;SDS011;8269;50.990;4.494;2023-05-10T13:56:26;13.93;;;9.02;;
16320;SDS011;8269;50.990;4.494;2023-05-10T13:58:52;12.70;;;8.57;;
16320;SDS011;8269;50.990;4.494;2023-05-10T14:01:18;9.55;;;7.60;;
16320;SDS011;8269;50.990;4.494;2023-05-10T14:03:44;10.77;;;7.95;;
16320;SDS011;8269;50.990;4.494;2023-05-10T14:06:10;11.15;;;8.15;;
16320;SDS011;8269;50.990;4.494;2023-05-10T14:08:36;12.07;;;8.43;;
16320;SDS011;8269;50.990;4.494;2023-05-10T14:11:01;12.95;;;8.50;;
16320;SDS011;8269;50.990;4.494;2023-05-10T14:13:27;11.50;;;8.05;;
16320;SDS011;8269;50.990;4.494;2023-05-10T14:15:53;11.68;;;8.10;;
16320;SDS011;8269;50.990;4.494;2023-05-10T14:18:20;10.38;;;7.75;;
16320;SDS011;8269;50.990;4.494;2023-05-10T14:20:46;11.55;;;8.55;;
16320;SDS011;8269;50.990;4.494;2023-05-10T14:23:12;15.55;;;9.18;;
16320;SDS011;8269;50.990;4.494;2023-05-10T14:25:39;11.52;;;8.90;;
16320;SDS011;8269;50.990;4.494;2023-05-10T14:28:05;13.00;;;10.02;;
16320;SDS011;8269;50.990;4.494;2023-05-10T14:30:31;12.48;;;9.75;;
16320;SDS011;8269;50.990;4.494;2023-05-10T14:32:59;16.15;;;10.52;;
16320;SDS011;8269;50.990;4.494;2023-05-10T14:35:26;13.43;;;10.73;;
16320;SDS011;8269;50.990;4.494;2023-05-10T14:37:52;16.52;;;11.57;;
16320;SDS011;8269;50.990;4.494;2023-05-10T14:40:19;18.45;;;13.52;;
16320;SDS011;8269;50.990;4.494;2023-05-10T14:42:46;18.65;;;12.75;;
16320;SDS011;8269;50.990;4.494;2023-05-10T14:45:11;16.02;;;12.15;;
16320;SDS011;8269;50.990;4.494;2023-05-10T14:47:37;15.60;;;11.05;;
16320;SDS011;8269;50.990;4.494;2023-05-10T14:50:03;14.60;;;10.80;;
16320;SDS011;8269;50.990;4.494;2023-05-10T14:52:29;14.70;;;11.57;;
16320;SDS011;8269;50.990;4.494;2023-05-10T14:54:55;15.20;;;11.45;;
16320;SDS011;8269;50.990;4.494;2023-05-10T14:57:20;17.23;;;11.52;;
16320;SDS011;8269;50.990;4.494;2023-05-10T14:59:46;14.15;;;11.30;;
16320;SDS011;8269;50.990;4.494;2023-05-10T15:02:12;14.75;;;11.57;;
16320;SDS011;8269;50.990;4.494;2023-05-10T15:04:38;15.93;;;12.20;;
16320;SDS011;8269;50.990;4.494;2023-05-10T15:07:04;17.42;;;12.20;;
16320;SDS011;8269;50.990;4.494;2023-05-10T15:09:30;16.02;;;10.93;;